TAF Text Data
IDs:
Format:
Raw Decoded Include METAR

Data at: 1957 UTC 18 Oct 2018

METAR for:KLBE (Latrobe/Palmer Rgnl, PA, US)
Text:KLBE 181945Z 27008KT 15SM SKC 09/M03 A3043
Temperature: 9.0°C ( 48°F)
Dewpoint: -3.0°C ( 27°F) [RH = 43%]
Pressure (altimeter):30.43 inches Hg (1030.6 mb)
Winds:from the W (270 degrees) at 9 MPH (8 knots; 4.1 m/s)
Visibility: 15 sm ( 24 km)
Ceiling:at least 12,000 feet AGL
Clouds:clear skies

TAF for:KLBE (Latrobe/Palmer Rgnl, PA, US) issued at 1722 UTC 18 Oct 2018
Text:KLBE 181722Z 1818/1918 30008KT P6SM SCT040
Forecast period:1800 UTC 18 October 2018 to 0000 UTC 19 October 2018
Forecast type:FROM: standard forecast or significant change
Winds:from the WNW (300 degrees) at 9 MPH (8 knots; 4.1 m/s)
Visibility:6 or more sm (10+ km)
Ceiling:at least 12,000 feet AGL
Clouds: scattered clouds at 4000 feet AGL
Text:FM190000 24005KT P6SM SKC
Forecast period:0000 to 1800 UTC 19 October 2018
Forecast type:FROM: standard forecast or significant change
Winds:from the WSW (240 degrees) at 6 MPH (5 knots; 2.6 m/s)
Visibility:6 or more sm (10+ km)
Ceiling:at least 12,000 feet AGL
Clouds:clear skies